sensor_id;sensor_type;location;lat;lon;timestamp;pressure;altitude;pressure_sealevel;temperature
42119;BMP280;27783;42.782;23.274;2022-09-03T00:00:18;95454.03;;;21.20
42119;BMP280;27783;42.782;23.274;2022-09-03T00:10:58;95470.56;;;20.92
42119;BMP280;27783;42.782;23.274;2022-09-03T00:13:32;95471.16;;;20.96
42119;BMP280;27783;42.782;23.274;2022-09-03T00:15:59;95470.88;;;21.12
42119;BMP280;27783;42.782;23.274;2022-09-03T00:18:30;95467.00;;;21.13
42119;BMP280;27783;42.782;23.274;2022-09-03T00:21:01;95467.59;;;21.17
42119;BMP280;27783;42.782;23.274;2022-09-03T00:23:34;95465.06;;;21.13
42119;BMP280;27783;42.782;23.274;2022-09-03T00:28:41;95459.69;;;21.13
42119;BMP280;27783;42.782;23.274;2022-09-03T00:31:13;95457.31;;;21.15
42119;BMP280;27783;42.782;23.274;2022-09-03T00:33:43;95456.56;;;21.15
42119;BMP280;27783;42.782;23.274;2022-09-03T00:36:14;95451.78;;;21.19
42119;BMP280;27783;42.782;23.274;2022-09-03T00:38:40;95450.28;;;21.18
42119;BMP280;27783;42.782;23.274;2022-09-03T00:52:40;95444.34;;;21.22
42119;BMP280;27783;42.782;23.274;2022-09-03T01:00:08;95454.47;;;21.19
42119;BMP280;27783;42.782;23.274;2022-09-03T01:08:32;95458.06;;;21.16
42119;BMP280;27783;42.782;23.274;2022-09-03T01:16:39;95450.91;;;21.13
42119;BMP280;27783;42.782;23.274;2022-09-03T01:22:23;95455.06;;;21.14
42119;BMP280;27783;42.782;23.274;2022-09-03T01:28:00;95461.03;;;21.09
42119;BMP280;27783;42.782;23.274;2022-09-03T01:30:29;95477.69;;;20.95
42119;BMP280;27783;42.782;23.274;2022-09-03T01:33:18;95479.63;;;20.95
42119;BMP280;27783;42.782;23.274;2022-09-03T01:38:54;95482.75;;;21.02
42119;BMP280;27783;42.782;23.274;2022-09-03T01:45:02;95487.81;;;20.83
42119;BMP280;27783;42.782;23.274;2022-09-03T01:53:16;95486.19;;;20.94
42119;BMP280;27783;42.782;23.274;2022-09-03T01:58:45;95477.25;;;20.79
42119;BMP280;27783;42.782;23.274;2022-09-03T02:01:32;95471.75;;;20.83
42119;BMP280;27783;42.782;23.274;2022-09-03T02:03:58;95467.59;;;20.90
42119;BMP280;27783;42.782;23.274;2022-09-03T02:06:27;95467.88;;;20.75
42119;BMP280;27783;42.782;23.274;2022-09-03T02:08:55;95472.19;;;20.81
42119;BMP280;27783;42.782;23.274;2022-09-03T02:11:21;95476.34;;;20.82
42119;BMP280;27783;42.782;23.274;2022-09-03T02:13:49;95485.91;;;20.83
42119;BMP280;27783;42.782;23.274;2022-09-03T02:16:22;95483.97;;;20.84
42119;BMP280;27783;42.782;23.274;2022-09-03T02:19:00;95489.47;;;20.80
42119;BMP280;27783;42.782;23.274;2022-09-03T02:21:27;95483.53;;;20.94
42119;BMP280;27783;42.782;23.274;2022-09-03T02:23:56;95491.09;;;20.78
42119;BMP280;27783;42.782;23.274;2022-09-03T02:26:23;95486.94;;;20.77
42119;BMP280;27783;42.782;23.274;2022-09-03T02:28:50;95489.59;;;20.86
42119;BMP280;27783;42.782;23.274;2022-09-03T02:31:15;95495.53;;;20.81
42119;BMP280;27783;42.782;23.274;2022-09-03T02:33:43;95495.41;;;20.84
42119;BMP280;27783;42.782;23.274;2022-09-03T02:36:13;95494.38;;;20.82
42119;BMP280;27783;42.782;23.274;2022-09-03T02:38:41;95492.88;;;20.81
42119;BMP280;27783;42.782;23.274;2022-09-03T02:41:07;95496.00;;;20.88
42119;BMP280;27783;42.782;23.274;2022-09-03T02:43:43;95489.47;;;20.80
42119;BMP280;27783;42.782;23.274;2022-09-03T02:46:18;95503.00;;;20.77
42119;BMP280;27783;42.782;23.274;2022-09-03T02:48:45;95499.88;;;20.78
42119;BMP280;27783;42.782;23.274;2022-09-03T02:51:10;95506.44;;;20.77
42119;BMP280;27783;42.782;23.274;2022-09-03T02:53:36;95512.66;;;20.74
42119;BMP280;27783;42.782;23.274;2022-09-03T02:56:01;95507.31;;;20.83
42119;BMP280;27783;42.782;23.274;2022-09-03T02:58:27;95503.44;;;20.84
42119;BMP280;27783;42.782;23.274;2022-09-03T03:00:53;95509.13;;;20.86
42119;BMP280;27783;42.782;23.274;2022-09-03T03:03:19;95497.03;;;20.82
42119;BMP280;27783;42.782;23.274;2022-09-03T03:05:50;95510.75;;;20.84
42119;BMP280;27783;42.782;23.274;2022-09-03T03:08:17;95500.34;;;20.77
42119;BMP280;27783;42.782;23.274;2022-09-03T03:10:46;95494.69;;;20.84
42119;BMP280;27783;42.782;23.274;2022-09-03T03:13:12;95504.78;;;20.80
42119;BMP280;27783;42.782;23.274;2022-09-03T03:15:38;95500.03;;;20.84
42119;BMP280;27783;42.782;23.274;2022-09-03T03:18:04;95500.03;;;20.84
42119;BMP280;27783;42.782;23.274;2022-09-03T03:20:29;95505.22;;;20.78
42119;BMP280;27783;42.782;23.274;2022-09-03T03:22:55;95500.19;;;20.80
42119;BMP280;27783;42.782;23.274;2022-09-03T03:25:20;95493.47;;;20.85
42119;BMP280;27783;42.782;23.274;2022-09-03T03:27:45;95503.16;;;20.82
42119;BMP280;27783;42.782;23.274;2022-09-03T03:30:11;95498.53;;;20.83
42119;BMP280;27783;42.782;23.274;2022-09-03T03:32:37;95503.00;;;20.77
42119;BMP280;27783;42.782;23.274;2022-09-03T03:35:04;95497.34;;;20.75
42119;BMP280;27783;42.782;23.274;2022-09-03T03:37:30;95486.34;;;20.73
42119;BMP280;27783;42.782;23.274;2022-09-03T03:39:56;95495.13;;;20.73
42119;BMP280;27783;42.782;23.274;2022-09-03T03:42:21;95503.44;;;20.75
42119;BMP280;27783;42.782;23.274;2022-09-03T03:44:47;95510.91;;;20.80
42119;BMP280;27783;42.782;23.274;2022-09-03T03:47:12;95509.25;;;20.74
42119;BMP280;27783;42.782;23.274;2022-09-03T03:49:37;95501.81;;;20.69
42119;BMP280;27783;42.782;23.274;2022-09-03T03:52:03;95500.16;;;20.71
42119;BMP280;27783;42.782;23.274;2022-09-03T03:54:29;95499.59;;;20.76
42119;BMP280;27783;42.782;23.274;2022-09-03T03:56:55;95505.38;;;20.75
42119;BMP280;27783;42.782;23.274;2022-09-03T03:59:20;95498.84;;;20.76
42119;BMP280;27783;42.782;23.274;2022-09-03T04:01:45;95505.97;;;20.79
42119;BMP280;27783;42.782;23.274;2022-09-03T04:04:12;95501.06;;;20.77
42119;BMP280;27783;42.782;23.274;2022-09-03T04:06:38;95501.22;;;20.74
42119;BMP280;27783;42.782;23.274;2022-09-03T04:09:04;95509.56;;;20.76
42119;BMP280;27783;42.782;23.274;2022-09-03T04:11:29;95506.59;;;20.74
42119;BMP280;27783;42.782;23.274;2022-09-03T04:13:54;95498.84;;;20.76
42119;BMP280;27783;42.782;23.274;2022-09-03T04:16:22;95504.03;;;20.79
42119;BMP280;27783;42.782;23.274;2022-09-03T04:18:48;95494.53;;;20.87
42119;BMP280;27783;42.782;23.274;2022-09-03T04:21:16;95502.13;;;20.88
42119;BMP280;27783;42.782;23.274;2022-09-03T04:23:44;95497.34;;;20.84
42119;BMP280;27783;42.782;23.274;2022-09-03T04:26:14;95504.78;;;20.80
42119;BMP280;27783;42.782;23.274;2022-09-03T04:28:40;95507.75;;;20.82
42119;BMP280;27783;42.782;23.274;2022-09-03T04:31:11;95519.38;;;20.79
42119;BMP280;27783;42.782;23.274;2022-09-03T04:33:37;95520.25;;;20.76
42119;BMP280;27783;42.782;23.274;2022-09-03T04:36:09;95522.81;;;20.70
42119;BMP280;27783;42.782;23.274;2022-09-03T04:38:36;95528.31;;;20.67
42119;BMP280;27783;42.782;23.274;2022-09-03T04:41:04;95532.44;;;20.59
42119;BMP280;27783;42.782;23.274;2022-09-03T04:43:29;95546.13;;;20.61
42119;BMP280;27783;42.782;23.274;2022-09-03T04:45:56;95544.06;;;20.65
42119;BMP280;27783;42.782;23.274;2022-09-03T04:48:22;95546.44;;;20.72
42119;BMP280;27783;42.782;23.274;2022-09-03T04:50:48;95543.94;;;20.95
42119;BMP280;27783;42.782;23.274;2022-09-03T04:53:13;95560.88;;;20.74
42119;BMP280;27783;42.782;23.274;2022-09-03T04:55:38;95564.59;;;20.59
42119;BMP280;27783;42.782;23.274;2022-09-03T04:58:04;95563.09;;;20.58
42119;BMP280;27783;42.782;23.274;2022-09-03T05:00:31;95570.84;;;20.65
42119;BMP280;27783;42.782;23.274;2022-09-03T05:02:59;95563.78;;;20.41
42119;BMP280;27783;42.782;23.274;2022-09-03T05:05:25;95577.38;;;20.64
42119;BMP280;27783;42.782;23.274;2022-09-03T05:07:50;95574.78;;;20.99
42119;BMP280;27783;42.782;23.274;2022-09-03T05:10:15;95576.13;;;21.03
42119;BMP280;27783;42.782;23.274;2022-09-03T05:12:45;95573.63;;;21.09
42119;BMP280;27783;42.782;23.274;2022-09-03T05:15:12;95572.09;;;20.99
42119;BMP280;27783;42.782;23.274;2022-09-03T05:17:38;95571.06;;;20.97
42119;BMP280;27783;42.782;23.274;2022-09-03T05:20:04;95581.59;;;20.74
42119;BMP280;27783;42.782;23.274;2022-09-03T05:22:33;95575.50;;;20.91
42119;BMP280;27783;42.782;23.274;2022-09-03T05:24:58;95565.38;;;20.95
42119;BMP280;27783;42.782;23.274;2022-09-03T05:27:24;95575.38;;;21.03
42119;BMP280;27783;42.782;23.274;2022-09-03T05:29:49;95577.44;;;20.82
42119;BMP280;27783;42.782;23.274;2022-09-03T05:32:14;95567.53;;;20.44
42119;BMP280;27783;42.782;23.274;2022-09-03T05:34:42;95573.63;;;20.44
42119;BMP280;27783;42.782;23.274;2022-09-03T05:37:08;95568.72;;;20.43
42119;BMP280;27783;42.782;23.274;2022-09-03T05:39:33;95578.03;;;20.94
42119;BMP280;27783;42.782;23.274;2022-09-03T05:41:58;95573.94;;;21.46
42119;BMP280;27783;42.782;23.274;2022-09-03T05:44:24;95575.84;;;21.63
42119;BMP280;27783;42.782;23.274;2022-09-03T05:46:49;95572.97;;;21.75
42119;BMP280;27783;42.782;23.274;2022-09-03T05:49:16;95578.19;;;21.70
42119;BMP280;27783;42.782;23.274;2022-09-03T05:51:42;95579.41;;;21.60
42119;BMP280;27783;42.782;23.274;2022-09-03T05:54:08;95578.81;;;21.03
42119;BMP280;27783;42.782;23.274;2022-09-03T05:56:36;95586.13;;;21.20
42119;BMP280;27783;42.782;23.274;2022-09-03T05:59:04;95581.84;;;21.23
42119;BMP280;27783;42.782;23.274;2022-09-03T06:01:33;95576.91;;;21.48
42119;BMP280;27783;42.782;23.274;2022-09-03T06:04:10;95570.31;;;21.75
42119;BMP280;27783;42.782;23.274;2022-09-03T06:06:38;95569.25;;;21.99
42119;BMP280;27783;42.782;23.274;2022-09-03T06:09:06;95579.50;;;22.09
42119;BMP280;27783;42.782;23.274;2022-09-03T06:11:33;95583.31;;;22.25
42119;BMP280;27783;42.782;23.274;2022-09-03T06:14:01;95581.75;;;22.42
42119;BMP280;27783;42.782;23.274;2022-09-03T06:16:28;95581.19;;;22.38
42119;BMP280;27783;42.782;23.274;2022-09-03T06:18:54;95584.94;;;22.32
42119;BMP280;27783;42.782;23.274;2022-09-03T06:21:20;95588.44;;;22.06
42119;BMP280;27783;42.782;23.274;2022-09-03T06:23:52;95590.16;;;22.26
42119;BMP280;27783;42.782;23.274;2022-09-03T06:26:18;95586.34;;;22.10
42119;BMP280;27783;42.782;23.274;2022-09-03T06:28:44;95590.06;;;22.12
42119;BMP280;27783;42.782;23.274;2022-09-03T06:31:13;95590.16;;;22.26
42119;BMP280;27783;42.782;23.274;2022-09-03T06:33:39;95598.03;;;22.38
42119;BMP280;27783;42.782;23.274;2022-09-03T06:36:08;95593.44;;;22.30
42119;BMP280;27783;42.782;23.274;2022-09-03T06:38:35;95597.94;;;22.24
42119;BMP280;27783;42.782;23.274;2022-09-03T06:41:03;95599.31;;;22.11
42119;BMP280;27783;42.782;23.274;2022-09-03T06:43:32;95597.78;;;22.28
42119;BMP280;27783;42.782;23.274;2022-09-03T06:46:03;95597.63;;;22.31
42119;BMP280;27783;42.782;23.274;2022-09-03T06:48:31;95593.53;;;22.44
42119;BMP280;27783;42.782;23.274;2022-09-03T06:53:29;95595.00;;;22.54
42119;BMP280;27783;42.782;23.274;2022-09-03T06:56:00;95601.94;;;22.69
42119;BMP280;27783;42.782;23.274;2022-09-03T06:58:36;95594.97;;;22.86
42119;BMP280;27783;42.782;23.274;2022-09-03T07:01:09;95603.00;;;22.94
42119;BMP280;27783;42.782;23.274;2022-09-03T07:03:36;95602.09;;;22.97
42119;BMP280;27783;42.782;23.274;2022-09-03T07:06:08;95598.63;;;22.74
42119;BMP280;27783;42.782;23.274;2022-09-03T07:08:34;95601.81;;;22.64
42119;BMP280;27783;42.782;23.274;2022-09-03T07:11:04;95607.69;;;22.54
42119;BMP280;27783;42.782;23.274;2022-09-03T07:13:36;95606.50;;;22.46
42119;BMP280;27783;42.782;23.274;2022-09-03T07:16:08;95610.81;;;22.61
42119;BMP280;27783;42.782;23.274;2022-09-03T07:18:34;95609.41;;;22.65
42119;BMP280;27783;42.782;23.274;2022-09-03T07:21:02;95612.94;;;22.80
42119;BMP280;27783;42.782;23.274;2022-09-03T07:23:29;95613.81;;;23.08
42119;BMP280;27783;42.782;23.274;2022-09-03T07:26:06;95607.88;;;23.27
42119;BMP280;27783;42.782;23.274;2022-09-03T07:28:34;95609.22;;;23.46
42119;BMP280;27783;42.782;23.274;2022-09-03T07:33:30;95619.19;;;23.68
42119;BMP280;27783;42.782;23.274;2022-09-03T07:36:01;95622.94;;;23.85
42119;BMP280;27783;42.782;23.274;2022-09-03T07:38:26;95629.97;;;24.05
42119;BMP280;27783;42.782;23.274;2022-09-03T07:40:59;95618.91;;;24.17
42119;BMP280;27783;42.782;23.274;2022-09-03T07:43:31;95612.75;;;24.31
42119;BMP280;27783;42.782;23.274;2022-09-03T07:45:58;95618.16;;;24.31
42119;BMP280;27783;42.782;23.274;2022-09-03T07:48:23;95607.75;;;24.24
42119;BMP280;27783;42.782;23.274;2022-09-03T07:50:49;95615.94;;;24.29
42119;BMP280;27783;42.782;23.274;2022-09-03T07:53:17;95620.03;;;24.39
42119;BMP280;27783;42.782;23.274;2022-09-03T07:55:45;95620.84;;;24.45
42119;BMP280;27783;42.782;23.274;2022-09-03T07:58:12;95622.31;;;24.60
42119;BMP280;27783;42.782;23.274;2022-09-03T08:00:38;95629.66;;;24.59
42119;BMP280;27783;42.782;23.274;2022-09-03T08:03:04;95627.81;;;24.65
42119;BMP280;27783;42.782;23.274;2022-09-03T08:05:33;95629.44;;;24.77
42119;BMP280;27783;42.782;23.274;2022-09-03T08:08:03;95627.97;;;24.76
42119;BMP280;27783;42.782;23.274;2022-09-03T08:10:30;95630.03;;;24.67
42119;BMP280;27783;42.782;23.274;2022-09-03T08:12:57;95633.34;;;24.76
42119;BMP280;27783;42.782;23.274;2022-09-03T08:15:24;95634.28;;;24.73
42119;BMP280;27783;42.782;23.274;2022-09-03T08:17:49;95627.13;;;24.70
42119;BMP280;27783;42.782;23.274;2022-09-03T08:20:14;95633.28;;;24.56
42119;BMP280;27783;42.782;23.274;2022-09-03T08:22:41;95628.00;;;24.62
42119;BMP280;27783;42.782;23.274;2022-09-03T08:25:07;95624.97;;;24.88
42119;BMP280;27783;42.782;23.274;2022-09-03T08:27:32;95623.66;;;24.84
42119;BMP280;27783;42.782;23.274;2022-09-03T08:29:58;95630.38;;;24.88
42119;BMP280;27783;42.782;23.274;2022-09-03T08:32:24;95626.91;;;24.88
42119;BMP280;27783;42.782;23.274;2022-09-03T08:34:49;95631.16;;;24.94
42119;BMP280;27783;42.782;23.274;2022-09-03T08:37:16;95631.94;;;25.14
42119;BMP280;27783;42.782;23.274;2022-09-03T08:39:43;95633.00;;;25.02
42119;BMP280;27783;42.782;23.274;2022-09-03T08:42:44;95626.56;;;24.80
42119;BMP280;27783;42.782;23.274;2022-09-03T08:45:14;95620.09;;;24.30
42119;BMP280;27783;42.782;23.274;2022-09-03T08:50:23;95625.00;;;24.74
42119;BMP280;27783;42.782;23.274;2022-09-03T08:53:08;95627.28;;;24.95
42119;BMP280;27783;42.782;23.274;2022-09-03T08:55:43;95633.09;;;25.07
42119;BMP280;27783;42.782;23.274;2022-09-03T08:58:13;95630.66;;;25.09
42119;BMP280;27783;42.782;23.274;2022-09-03T09:06:49;95621.84;;;25.67
42119;BMP280;27783;42.782;23.274;2022-09-03T09:11:49;95624.00;;;25.63
42119;BMP280;27783;42.782;23.274;2022-09-03T09:14:24;95623.56;;;25.84
42119;BMP280;27783;42.782;23.274;2022-09-03T09:22:36;95632.78;;;25.78
42119;BMP280;27783;42.782;23.274;2022-09-03T09:25:08;95630.56;;;25.57
42119;BMP280;27783;42.782;23.274;2022-09-03T09:27:43;95631.41;;;25.68
42119;BMP280;27783;42.782;23.274;2022-09-03T09:30:12;95633.28;;;25.57
42119;BMP280;27783;42.782;23.274;2022-09-03T09:32:42;95620.03;;;25.20
42119;BMP280;27783;42.782;23.274;2022-09-03T09:35:10;95634.06;;;24.90
42119;BMP280;27783;42.782;23.274;2022-09-03T09:37:46;95626.78;;;24.96
42119;BMP280;27783;42.782;23.274;2022-09-03T09:40:25;95633.63;;;25.11
42119;BMP280;27783;42.782;23.274;2022-09-03T09:43:02;95636.78;;;25.24
42119;BMP280;27783;42.782;23.274;2022-09-03T09:45:27;95629.44;;;25.10
42119;BMP280;27783;42.782;23.274;2022-09-03T09:47:54;95622.28;;;25.22
42119;BMP280;27783;42.782;23.274;2022-09-03T09:50:20;95627.78;;;25.32
42119;BMP280;27783;42.782;23.274;2022-09-03T09:52:46;95629.47;;;25.30
42119;BMP280;27783;42.782;23.274;2022-09-03T09:55:17;95620.63;;;25.49
42119;BMP280;27783;42.782;23.274;2022-09-03T09:57:43;95630.47;;;25.52
42119;BMP280;27783;42.782;23.274;2022-09-03T10:00:12;95631.81;;;25.61
42119;BMP280;27783;42.782;23.274;2022-09-03T10:02:48;95633.25;;;25.76
42119;BMP280;27783;42.782;23.274;2022-09-03T10:05:20;95636.97;;;25.79
42119;BMP280;27783;42.782;23.274;2022-09-03T10:08:04;95630.91;;;25.84
42119;BMP280;27783;42.782;23.274;2022-09-03T10:10:33;95631.91;;;26.11
42119;BMP280;27783;42.782;23.274;2022-09-03T10:13:06;95631.88;;;26.30
42119;BMP280;27783;42.782;23.274;2022-09-03T10:15:46;95629.09;;;26.50
42119;BMP280;27783;42.782;23.274;2022-09-03T10:18:29;95631.50;;;26.73
42119;BMP280;27783;42.782;23.274;2022-09-03T10:21:07;95621.78;;;26.91
42119;BMP280;27783;42.782;23.274;2022-09-03T10:23:49;95620.56;;;26.92
42119;BMP280;27783;42.782;23.274;2022-09-03T10:26:18;95621.88;;;26.66
42119;BMP280;27783;42.782;23.274;2022-09-03T10:28:49;95621.13;;;26.66
42119;BMP280;27783;42.782;23.274;2022-09-03T10:31:54;95622.97;;;26.85
42119;BMP280;27783;42.782;23.274;2022-09-03T10:34:37;95625.00;;;26.59
42119;BMP280;27783;42.782;23.274;2022-09-03T10:47:35;95616.97;;;27.52
42119;BMP280;27783;42.782;23.274;2022-09-03T10:50:20;95624.59;;;27.48
42119;BMP280;27783;42.782;23.274;2022-09-03T10:56:00;95620.75;;;27.70
42119;BMP280;27783;42.782;23.274;2022-09-03T11:01:27;95625.75;;;27.88
42119;BMP280;27783;42.782;23.274;2022-09-03T11:06:51;95623.13;;;27.52
42119;BMP280;27783;42.782;23.274;2022-09-03T11:12:03;95618.22;;;27.56
42119;BMP280;27783;42.782;23.274;2022-09-03T11:14:41;95624.69;;;27.23
42119;BMP280;27783;42.782;23.274;2022-09-03T11:17:36;95622.34;;;27.00
42119;BMP280;27783;42.782;23.274;2022-09-03T11:20:22;95626.78;;;27.03
42119;BMP280;27783;42.782;23.274;2022-09-03T11:22:59;95621.56;;;26.94
42119;BMP280;27783;42.782;23.274;2022-09-03T11:25:40;95626.78;;;26.98
42119;BMP280;27783;42.782;23.274;2022-09-03T11:28:26;95632.19;;;26.98
42119;BMP280;27783;42.782;23.274;2022-09-03T11:33:46;95618.66;;;26.68
42119;BMP280;27783;42.782;23.274;2022-09-03T11:36:32;95619.56;;;26.90
42119;BMP280;27783;42.782;23.274;2022-09-03T11:38:58;95609.09;;;27.02
42119;BMP280;27783;42.782;23.274;2022-09-03T11:41:26;95617.69;;;27.01
42119;BMP280;27783;42.782;23.274;2022-09-03T11:43:53;95615.72;;;27.01
42119;BMP280;27783;42.782;23.274;2022-09-03T11:48:52;95612.66;;;26.89
42119;BMP280;27783;42.782;23.274;2022-09-03T11:56:45;95612.28;;;26.71
42119;BMP280;27783;42.782;23.274;2022-09-03T11:59:22;95616.00;;;26.73
42119;BMP280;27783;42.782;23.274;2022-09-03T12:02:05;95613.31;;;26.73
42119;BMP280;27783;42.782;23.274;2022-09-03T12:10:28;95596.59;;;26.74
42119;BMP280;27783;42.782;23.274;2022-09-03T12:18:31;95582.94;;;26.94
42119;BMP280;27783;42.782;23.274;2022-09-03T12:23:50;95585.25;;;27.06
42119;BMP280;27783;42.782;23.274;2022-09-03T12:26:25;95581.81;;;27.11
42119;BMP280;27783;42.782;23.274;2022-09-03T12:28:57;95582.59;;;27.17
42119;BMP280;27783;42.782;23.274;2022-09-03T12:31:28;95584.31;;;27.20
42119;BMP280;27783;42.782;23.274;2022-09-03T12:36:34;95584.19;;;27.44
42119;BMP280;27783;42.782;23.274;2022-09-03T12:39:07;95573.69;;;27.62
42119;BMP280;27783;42.782;23.274;2022-09-03T12:41:33;95574.97;;;27.83
42119;BMP280;27783;42.782;23.274;2022-09-03T12:43:59;95580.69;;;28.06
42119;BMP280;27783;42.782;23.274;2022-09-03T12:46:27;95572.56;;;28.38
42119;BMP280;27783;42.782;23.274;2022-09-03T12:49:03;95566.91;;;28.68
42119;BMP280;27783;42.782;23.274;2022-09-03T12:51:35;95564.84;;;29.17
42119;BMP280;27783;42.782;23.274;2022-09-03T12:54:01;95554.31;;;30.03
42119;BMP280;27783;42.782;23.274;2022-09-03T12:56:27;95553.81;;;30.95
42119;BMP280;27783;42.782;23.274;2022-09-03T12:59:02;95550.50;;;31.26
42119;BMP280;27783;42.782;23.274;2022-09-03T13:01:40;95541.59;;;32.51
42119;BMP280;27783;42.782;23.274;2022-09-03T13:04:11;95543.81;;;33.21
42119;BMP280;27783;42.782;23.274;2022-09-03T13:07:05;95539.47;;;34.81
42119;BMP280;27783;42.782;23.274;2022-09-03T13:09:35;95538.66;;;36.31
42119;BMP280;27783;42.782;23.274;2022-09-03T13:12:02;95527.94;;;37.80
42119;BMP280;27783;42.782;23.274;2022-09-03T13:14:41;95527.84;;;38.88
42119;BMP280;27783;42.782;23.274;2022-09-03T13:23:05;95499.38;;;41.13
42119;BMP280;27783;42.782;23.274;2022-09-03T13:28:06;95512.81;;;42.18
42119;BMP280;27783;42.782;23.274;2022-09-03T13:33:22;95499.47;;;43.22
42119;BMP280;27783;42.782;23.274;2022-09-03T13:36:16;95499.72;;;43.26
42119;BMP280;27783;42.782;23.274;2022-09-03T13:44:08;95497.09;;;42.98
42119;BMP280;27783;42.782;23.274;2022-09-03T13:46:51;95483.69;;;42.95
42119;BMP280;27783;42.782;23.274;2022-09-03T13:55:24;95496.69;;;43.43
42119;BMP280;27783;42.782;23.274;2022-09-03T14:17:18;95504.66;;;34.49
42119;BMP280;27783;42.782;23.274;2022-09-03T14:19:58;95500.13;;;37.54
42119;BMP280;27783;42.782;23.274;2022-09-03T14:22:48;95495.59;;;42.29
42119;BMP280;27783;42.782;23.274;2022-09-03T14:27:41;95500.19;;;41.42
42119;BMP280;27783;42.782;23.274;2022-09-03T14:30:33;95494.09;;;44.50
42119;BMP280;27783;42.782;23.274;2022-09-03T14:33:25;95493.63;;;45.32
42119;BMP280;27783;42.782;23.274;2022-09-03T14:41:49;95482.03;;;44.14
42119;BMP280;27783;42.782;23.274;2022-09-03T14:44:35;95487.56;;;43.83
42119;BMP280;27783;42.782;23.274;2022-09-03T14:50:10;95497.50;;;43.86
42119;BMP280;27783;42.782;23.274;2022-09-03T14:52:59;95499.34;;;44.24
42119;BMP280;27783;42.782;23.274;2022-09-03T14:56:01;95497.25;;;40.00
42119;BMP280;27783;42.782;23.274;2022-09-03T15:09:37;95511.06;;;33.66
42119;BMP280;27783;42.782;23.274;2022-09-03T15:12:18;95515.63;;;33.13
42119;BMP280;27783;42.782;23.274;2022-09-03T15:14:52;95514.09;;;32.49
42119;BMP280;27783;42.782;23.274;2022-09-03T15:17:28;95513.72;;;32.09
42119;BMP280;27783;42.782;23.274;2022-09-03T15:29:19;95526.16;;;30.63
42119;BMP280;27783;42.782;23.274;2022-09-03T15:36:57;95526.91;;;29.56
42119;BMP280;27783;42.782;23.274;2022-09-03T15:39:30;95524.00;;;29.43
42119;BMP280;27783;42.782;23.274;2022-09-03T15:42:05;95526.56;;;29.20
42119;BMP280;27783;42.782;23.274;2022-09-03T15:44:40;95529.63;;;28.90
42119;BMP280;27783;42.782;23.274;2022-09-03T15:47:56;95535.81;;;28.91
42119;BMP280;27783;42.782;23.274;2022-09-03T15:50:02;95543.72;;;28.78
42119;BMP280;27783;42.782;23.274;2022-09-03T15:52:48;95535.84;;;28.48
42119;BMP280;27783;42.782;23.274;2022-09-03T15:55:37;95535.59;;;28.35
42119;BMP280;27783;42.782;23.274;2022-09-03T16:01:03;95541.28;;;28.16
42119;BMP280;27783;42.782;23.274;2022-09-03T16:03:45;95550.91;;;28.17
42119;BMP280;27783;42.782;23.274;2022-09-03T16:11:39;95562.66;;;27.92
42119;BMP280;27783;42.782;23.274;2022-09-03T16:17:32;95560.91;;;27.68
42119;BMP280;27783;42.782;23.274;2022-09-03T16:20:06;95568.22;;;27.52
42119;BMP280;27783;42.782;23.274;2022-09-03T16:25:29;95576.47;;;27.27
42119;BMP280;27783;42.782;23.274;2022-09-03T16:28:07;95584.78;;;27.13
42119;BMP280;27783;42.782;23.274;2022-09-03T16:39:17;95595.81;;;26.69
42119;BMP280;27783;42.782;23.274;2022-09-03T16:50:32;95603.25;;;26.19
42119;BMP280;27783;42.782;23.274;2022-09-03T16:53:20;95607.38;;;25.90
42119;BMP280;27783;42.782;23.274;2022-09-03T16:56:23;95596.56;;;25.90
42119;BMP280;27783;42.782;23.274;2022-09-03T17:01:51;95599.91;;;25.79
42119;BMP280;27783;42.782;23.274;2022-09-03T17:04:29;95611.19;;;25.78
42119;BMP280;27783;42.782;23.274;2022-09-03T17:12:39;95621.31;;;25.63
42119;BMP280;27783;42.782;23.274;2022-09-03T17:23:47;95635.69;;;25.02
42119;BMP280;27783;42.782;23.274;2022-09-03T17:34:29;95650.19;;;24.85
42119;BMP280;27783;42.782;23.274;2022-09-03T17:43:38;95670.00;;;24.68
42119;BMP280;27783;42.782;23.274;2022-09-03T17:48:50;95688.06;;;24.62
42119;BMP280;27783;42.782;23.274;2022-09-03T17:51:41;95690.38;;;24.55
42119;BMP280;27783;42.782;23.274;2022-09-03T17:59:44;95694.72;;;24.24
42119;BMP280;27783;42.782;23.274;2022-09-03T18:02:53;95691.94;;;24.19
42119;BMP280;27783;42.782;23.274;2022-09-03T18:05:16;95695.19;;;24.23
42119;BMP280;27783;42.782;23.274;2022-09-03T18:18:29;95721.03;;;23.15
42119;BMP280;27783;42.782;23.274;2022-09-03T18:20:57;95732.00;;;22.72
42119;BMP280;27783;42.782;23.274;2022-09-03T18:26:53;95722.75;;;23.58
42119;BMP280;27783;42.782;23.274;2022-09-03T18:29:45;95729.44;;;23.08
42119;BMP280;27783;42.782;23.274;2022-09-03T18:32:31;95741.09;;;22.65
42119;BMP280;27783;42.782;23.274;2022-09-03T18:35:15;95734.16;;;22.90
42119;BMP280;27783;42.782;23.274;2022-09-03T18:38:02;95736.25;;;23.18
42119;BMP280;27783;42.782;23.274;2022-09-03T18:41:05;95733.84;;;23.29
42119;BMP280;27783;42.782;23.274;2022-09-03T18:47:21;95737.41;;;23.35
42119;BMP280;27783;42.782;23.274;2022-09-03T18:53:10;95734.72;;;23.35
42119;BMP280;27783;42.782;23.274;2022-09-03T18:56:31;95730.41;;;23.28
42119;BMP280;27783;42.782;23.274;2022-09-03T19:02:35;95729.84;;;23.16
42119;BMP280;27783;42.782;23.274;2022-09-03T19:05:33;95742.13;;;23.08
42119;BMP280;27783;42.782;23.274;2022-09-03T19:08:35;95749.06;;;23.00
42119;BMP280;27783;42.782;23.274;2022-09-03T19:11:29;95750.41;;;22.96
42119;BMP280;27783;42.782;23.274;2022-09-03T19:14:28;95754.78;;;22.93
42119;BMP280;27783;42.782;23.274;2022-09-03T19:20:33;95764.66;;;22.88
42119;BMP280;27783;42.782;23.274;2022-09-03T19:23:18;95768.84;;;22.80
42119;BMP280;27783;42.782;23.274;2022-09-03T19:29:42;95785.88;;;22.77
42119;BMP280;27783;42.782;23.274;2022-09-03T19:32:47;95785.88;;;22.77
42119;BMP280;27783;42.782;23.274;2022-09-03T19:36:28;95783.78;;;22.72
42119;BMP280;27783;42.782;23.274;2022-09-03T19:45:07;95775.16;;;22.68